Time;durP1;ratioP1;P1;durP2;ratioP2;P2;SDS_P1;SDS_P2;PMS_P1;PMS_P2;Temp;Humidity;BMP_temperature;BMP_pressure;BME280_temperature;BME280_humidity;BME280_pressure;Samples;Min_cycle;Max_cycle;Signal;HPM_P1;HPM_P2
2022/06/16 00:00:40;;;;;;;7.35;5.55;;;;;;;;;;4953121;28;20034;-68
2022/06/16 00:03:06;;;;;;;9.63;6.18;;;;;;;;;;4965226;28;20048;-68
2022/06/16 00:05:36;;;;;;;8.52;6.07;;;;;;;;;;4951260;28;21139;-68
2022/06/16 00:08:02;;;;;;;8.48;5.88;;;;;;;;;;4972198;28;20742;-67
2022/06/16 00:10:27;;;;;;;9.10;6.10;;;;;;;;;;4970881;28;20092;-67
2022/06/16 00:12:52;;;;;;;9.05;6.40;;;;;;;;;;4970794;28;20049;-69
2022/06/16 00:15:21;;;;;;;9.88;6.38;;;;;;;;;;4970483;28;20560;-69
2022/06/16 00:17:47;;;;;;;8.85;6.45;;;;;;;;;;4961724;28;20148;-68
2022/06/16 00:20:15;;;;;;;10.77;6.35;;;;;;;;;;4981335;28;20801;-68
2022/06/16 00:22:41;;;;;;;8.85;6.35;;;;;;;;;;4970267;28;20168;-67
2022/06/16 00:25:07;;;;;;;10.85;6.40;;;;;;;;;;4970626;28;20829;-68
2022/06/16 00:27:33;;;;;;;12.32;7.15;;;;;;;;;;4968436;28;20748;-68
2022/06/16 00:30:02;;;;;;;11.30;6.93;;;;;;;;;;4968666;28;21239;-69
2022/06/16 00:32:28;;;;;;;10.95;7.43;;;;;;;;;;4972780;28;20065;-67
2022/06/16 00:34:54;;;;;;;10.27;5.88;;;;;;;;;;4968638;28;21034;-68
2022/06/16 00:37:21;;;;;;;11.35;5.60;;;;;;;;;;4970681;28;20104;-67
2022/06/16 00:39:47;;;;;;;12.75;5.57;;;;;;;;;;4972244;28;20033;-68
2022/06/16 00:42:17;;;;;;;9.32;5.10;;;;;;;;;;4971236;28;20040;-67
2022/06/16 00:44:43;;;;;;;9.25;5.15;;;;;;;;;;4969398;28;20048;-68
2022/06/16 00:47:09;;;;;;;7.88;4.03;;;;;;;;;;4964007;28;20938;-67
2022/06/16 00:49:36;;;;;;;6.70;4.25;;;;;;;;;;4964529;28;20116;-68
2022/06/16 00:52:06;;;;;;;7.75;4.10;;;;;;;;;;4948361;28;20061;-67
2022/06/16 00:54:34;;;;;;;12.60;4.68;;;;;;;;;;4949983;28;20061;-67
2022/06/16 00:57:03;;;;;;;7.10;4.03;;;;;;;;;;4949770;28;20026;-68
2022/06/16 00:59:28;;;;;;;6.50;4.97;;;;;;;;;;4950112;28;20026;-67
2022/06/16 01:01:59;;;;;;;9.82;4.72;;;;;;;;;;4948476;28;20031;-68
2022/06/16 01:07:09;;;;;;;7.38;4.03;;;;;;;;;;4949281;28;21077;-67
2022/06/16 01:09:36;;;;;;;7.68;4.28;;;;;;;;;;4951797;28;20039;-68
2022/06/16 01:15:08;;;;;;;6.80;4.43;;;;;;;;;;4971397;28;25205;-68
2022/06/16 01:17:52;;;;;;;7.53;4.47;;;;;;;;;;4970896;28;20192;-68
2022/06/16 01:20:30;;;;;;;8.02;4.50;;;;;;;;;;4971608;28;20044;-68
2022/06/16 01:22:58;;;;;;;8.00;4.55;;;;;;;;;;4970987;28;20034;-67
2022/06/16 01:25:23;;;;;;;6.90;4.30;;;;;;;;;;4971332;28;20042;-68
2022/06/16 01:27:48;;;;;;;8.25;4.68;;;;;;;;;;4971712;28;20862;-69
2022/06/16 01:30:16;;;;;;;6.72;4.53;;;;;;;;;;4971802;28;20026;-67
2022/06/16 01:32:44;;;;;;;6.32;4.45;;;;;;;;;;4971594;28;20056;-68
2022/06/16 01:35:13;;;;;;;7.72;4.60;;;;;;;;;;4970705;28;20042;-70
2022/06/16 01:37:38;;;;;;;8.25;5.00;;;;;;;;;;4969853;28;20089;-67
2022/06/16 01:40:09;;;;;;;7.53;5.20;;;;;;;;;;4970949;28;20076;-67
2022/06/16 01:42:39;;;;;;;8.35;4.95;;;;;;;;;;4971460;28;20034;-68
2022/06/16 01:45:16;;;;;;;9.93;5.35;;;;;;;;;;4970744;28;20042;-67
2022/06/16 01:47:47;;;;;;;9.57;5.47;;;;;;;;;;4971233;28;20033;-68
2022/06/16 01:50:15;;;;;;;8.38;5.43;;;;;;;;;;4983635;28;20125;-69
2022/06/16 01:52:51;;;;;;;10.15;5.32;;;;;;;;;;4968270;28;20446;-68
2022/06/16 01:55:19;;;;;;;8.68;5.80;;;;;;;;;;4970186;28;20060;-70
2022/06/16 01:57:49;;;;;;;8.27;5.72;;;;;;;;;;4970439;28;20042;-69
2022/06/16 02:00:21;;;;;;;8.70;5.97;;;;;;;;;;4970187;28;20055;-67
2022/06/16 02:02:53;;;;;;;9.73;5.75;;;;;;;;;;4970423;28;20053;-68
2022/06/16 02:05:24;;;;;;;10.15;6.20;;;;;;;;;;4970449;28;20045;-69
2022/06/16 02:07:57;;;;;;;10.05;6.20;;;;;;;;;;4984271;28;20037;-69
2022/06/16 02:10:29;;;;;;;10.95;6.40;;;;;;;;;;4970560;28;20038;-68
2022/06/16 02:12:56;;;;;;;12.40;6.60;;;;;;;;;;4969053;28;20034;-68
2022/06/16 02:15:24;;;;;;;7.85;6.18;;;;;;;;;;4971564;28;20045;-68
2022/06/16 02:17:50;;;;;;;13.57;6.40;;;;;;;;;;4984615;28;20136;-68
2022/06/16 02:20:18;;;;;;;9.07;6.10;;;;;;;;;;4969893;28;20030;-69
2022/06/16 02:22:43;;;;;;;9.05;6.32;;;;;;;;;;4985633;28;20038;-69
2022/06/16 02:25:09;;;;;;;10.15;6.10;;;;;;;;;;4970027;28;20037;-68
2022/06/16 02:27:35;;;;;;;9.45;6.20;;;;;;;;;;4970754;28;20053;-68
2022/06/16 02:30:00;;;;;;;10.45;5.90;;;;;;;;;;4983632;28;20045;-68
2022/06/16 02:32:47;;;;;;;11.15;5.57;;;;;;;;;;4970804;28;20034;-68
2022/06/16 02:35:14;;;;;;;7.90;5.70;;;;;;;;;;4955353;28;20620;-69
2022/06/16 02:37:56;;;;;;;8.15;5.68;;;;;;;;;;4951775;28;20038;-69
2022/06/16 02:40:24;;;;;;;7.20;5.55;;;;;;;;;;4950994;28;20039;-69
2022/06/16 02:43:18;;;;;;;7.40;5.20;;;;;;;;;;4950668;28;20053;-68
2022/06/16 02:45:49;;;;;;;8.18;5.40;;;;;;;;;;4950780;28;20054;-70
2022/06/16 02:48:20;;;;;;;8.20;5.25;;;;;;;;;;4951001;28;20046;-69
2022/06/16 02:50:45;;;;;;;7.80;5.38;;;;;;;;;;4950889;28;20034;-68
2022/06/16 02:53:20;;;;;;;9.15;5.35;;;;;;;;;;4951042;28;20027;-68
2022/06/16 02:55:49;;;;;;;9.73;5.07;;;;;;;;;;4949290;28;20041;-69
2022/06/16 02:58:22;;;;;;;9.93;5.53;;;;;;;;;;4950723;28;20034;-69
2022/06/16 03:00:51;;;;;;;8.35;5.22;;;;;;;;;;4950042;28;20042;-69
2022/06/16 03:03:29;;;;;;;10.85;5.25;;;;;;;;;;4952900;28;20072;-67
2022/06/16 03:05:56;;;;;;;7.78;5.50;;;;;;;;;;4950843;28;20038;-68
2022/06/16 03:08:22;;;;;;;7.47;5.32;;;;;;;;;;4951105;28;20075;-68
2022/06/16 03:10:54;;;;;;;8.05;5.28;;;;;;;;;;4948273;28;20038;-69
2022/06/16 03:13:25;;;;;;;7.47;5.20;;;;;;;;;;4984804;28;20088;-68
2022/06/16 03:15:53;;;;;;;8.82;5.18;;;;;;;;;;4974067;28;21200;-68
2022/06/16 03:18:20;;;;;;;9.38;5.55;;;;;;;;;;4972621;28;20038;-67
2022/06/16 03:20:48;;;;;;;10.98;5.68;;;;;;;;;;4987886;28;20115;-68
2022/06/16 03:23:13;;;;;;;8.23;5.68;;;;;;;;;;4974374;28;20099;-68
2022/06/16 03:25:39;;;;;;;9.30;5.32;;;;;;;;;;4973976;28;20149;-68
2022/06/16 03:28:04;;;;;;;8.38;5.30;;;;;;;;;;4977808;28;20030;-68
2022/06/16 03:30:31;;;;;;;10.00;5.40;;;;;;;;;;4974271;28;20975;-68
2022/06/16 03:32:56;;;;;;;10.00;5.85;;;;;;;;;;4973618;28;21076;-69
2022/06/16 03:35:22;;;;;;;11.32;5.15;;;;;;;;;;4971960;28;20046;-69
2022/06/16 03:37:47;;;;;;;8.65;5.13;;;;;;;;;;4953756;28;20034;-68
2022/06/16 03:40:13;;;;;;;9.77;5.57;;;;;;;;;;4958733;28;20609;-68
2022/06/16 03:42:39;;;;;;;7.30;4.78;;;;;;;;;;4960144;28;20039;-67
2022/06/16 03:45:04;;;;;;;9.27;5.95;;;;;;;;;;4953760;28;20199;-69
2022/06/16 03:47:32;;;;;;;8.43;5.13;;;;;;;;;;4953071;28;20045;-67
2022/06/16 03:49:57;;;;;;;9.48;5.00;;;;;;;;;;4953374;28;20038;-68
2022/06/16 03:52:24;;;;;;;11.40;6.30;;;;;;;;;;4949642;28;20038;-68
2022/06/16 03:54:50;;;;;;;8.05;5.85;;;;;;;;;;4961848;28;20047;-69
2022/06/16 03:57:15;;;;;;;7.60;6.03;;;;;;;;;;4938844;28;20135;-68
2022/06/16 03:59:40;;;;;;;8.48;5.60;;;;;;;;;;4957114;28;20137;-69
2022/06/16 04:02:05;;;;;;;8.07;6.28;;;;;;;;;;4954807;28;20104;-67
2022/06/16 04:04:31;;;;;;;11.73;7.03;;;;;;;;;;4961977;28;20104;-70
2022/06/16 04:06:58;;;;;;;12.73;6.82;;;;;;;;;;4953626;28;20100;-68
2022/06/16 04:09:24;;;;;;;10.48;6.75;;;;;;;;;;4952552;28;20065;-67
2022/06/16 04:11:49;;;;;;;9.30;6.68;;;;;;;;;;4953289;28;20084;-69
2022/06/16 04:14:14;;;;;;;12.63;8.10;;;;;;;;;;4963013;28;20035;-68
2022/06/16 04:16:44;;;;;;;10.35;6.78;;;;;;;;;;4966838;28;20056;-70
2022/06/16 04:19:13;;;;;;;11.18;7.20;;;;;;;;;;4967476;28;20041;-68
2022/06/16 04:21:39;;;;;;;9.30;7.05;;;;;;;;;;4952225;28;21184;-69
2022/06/16 04:24:05;;;;;;;10.77;7.28;;;;;;;;;;4960428;28;20046;-69
2022/06/16 04:26:30;;;;;;;11.80;7.13;;;;;;;;;;4956256;28;20156;-68
2022/06/16 04:28:55;;;;;;;12.70;7.55;;;;;;;;;;4952330;28;20034;-68
2022/06/16 04:31:23;;;;;;;10.38;7.25;;;;;;;;;;4952487;28;20038;-68
2022/06/16 04:33:49;;;;;;;10.15;7.47;;;;;;;;;;4966339;28;20152;-68
2022/06/16 04:36:14;;;;;;;9.02;7.43;;;;;;;;;;4952736;28;20048;-68
2022/06/16 04:38:40;;;;;;;8.98;7.30;;;;;;;;;;4952288;28;20809;-69
2022/06/16 04:41:06;;;;;;;11.57;7.47;;;;;;;;;;4967440;28;20042;-68
2022/06/16 04:43:32;;;;;;;11.43;6.82;;;;;;;;;;4952415;28;20097;-68
2022/06/16 04:45:58;;;;;;;9.80;7.07;;;;;;;;;;4944700;28;20049;-70
2022/06/16 04:48:26;;;;;;;10.02;6.85;;;;;;;;;;4952844;28;20046;-69
2022/06/16 04:50:51;;;;;;;10.55;6.70;;;;;;;;;;4952177;28;20045;-67
2022/06/16 04:53:17;;;;;;;8.60;6.60;;;;;;;;;;4952005;28;20038;-68
2022/06/16 04:55:43;;;;;;;9.35;6.65;;;;;;;;;;4952065;28;20130;-69
2022/06/16 04:58:08;;;;;;;8.68;6.43;;;;;;;;;;4951689;28;20057;-69
2022/06/16 05:00:34;;;;;;;7.63;5.90;;;;;;;;;;4952283;28;20034;-69
2022/06/16 05:03:00;;;;;;;9.23;5.30;;;;;;;;;;4960172;28;20037;-70
2022/06/16 05:05:26;;;;;;;7.82;5.25;;;;;;;;;;4951011;28;20585;-68
2022/06/16 05:07:51;;;;;;;8.45;5.22;;;;;;;;;;4950258;28;20141;-69
2022/06/16 05:10:19;;;;;;;8.35;4.70;;;;;;;;;;4951262;28;20715;-70
2022/06/16 05:12:45;;;;;;;8.20;4.95;;;;;;;;;;4951398;28;21157;-69
2022/06/16 05:15:10;;;;;;;6.25;4.32;;;;;;;;;;4964636;28;20050;-69
2022/06/16 05:17:36;;;;;;;6.40;4.70;;;;;;;;;;4953850;28;20037;-69
2022/06/16 05:20:01;;;;;;;8.23;4.85;;;;;;;;;;4965046;28;21191;-70
2022/06/16 05:22:29;;;;;;;7.63;4.72;;;;;;;;;;4950761;28;20053;-70
2022/06/16 05:24:54;;;;;;;6.90;4.80;;;;;;;;;;4952132;28;20027;-70
2022/06/16 05:27:20;;;;;;;6.65;4.03;;;;;;;;;;4951163;28;20818;-70
2022/06/16 05:29:45;;;;;;;8.75;4.45;;;;;;;;;;4951572;28;20354;-70
2022/06/16 05:32:11;;;;;;;5.75;3.92;;;;;;;;;;4952122;28;20862;-71
2022/06/16 05:34:36;;;;;;;6.45;3.40;;;;;;;;;;4953096;28;20037;-69
2022/06/16 05:37:02;;;;;;;7.07;3.30;;;;;;;;;;4971758;28;20153;-69
2022/06/16 05:39:28;;;;;;;7.60;3.78;;;;;;;;;;4969850;28;20030;-70
2022/06/16 05:41:53;;;;;;;7.53;3.97;;;;;;;;;;4970921;28;20746;-70
2022/06/16 05:44:19;;;;;;;6.80;3.70;;;;;;;;;;4970652;28;20129;-69
2022/06/16 05:46:45;;;;;;;6.35;4.03;;;;;;;;;;4958640;28;20038;-69
2022/06/16 05:49:15;;;;;;;5.10;3.60;;;;;;;;;;4969723;28;20037;-69
2022/06/16 05:51:40;;;;;;;5.93;3.67;;;;;;;;;;4957825;28;20033;-69
2022/06/16 05:54:06;;;;;;;6.55;3.45;;;;;;;;;;4970715;28;20569;-69
2022/06/16 05:56:32;;;;;;;5.50;3.45;;;;;;;;;;4970064;28;20050;-69
2022/06/16 05:58:57;;;;;;;5.38;3.35;;;;;;;;;;4969996;28;20124;-70
2022/06/16 06:01:22;;;;;;;6.43;2.50;;;;;;;;;;4970544;28;20042;-68
2022/06/16 06:03:48;;;;;;;3.92;2.50;;;;;;;;;;4971063;28;20030;-69
2022/06/16 06:06:13;;;;;;;6.40;2.92;;;;;;;;;;4970423;28;20033;-68
2022/06/16 06:16:59;;;;;;;5.28;2.83;;;;;;;;;;4972615;28;20044;-69
2022/06/16 06:19:25;;;;;;;6.43;3.20;;;;;;;;;;4950321;28;20080;-68
2022/06/16 06:22:02;;;;;;;5.70;3.28;;;;;;;;;;4950398;28;20042;-68
2022/06/16 06:24:32;;;;;;;7.10;3.10;;;;;;;;;;4950002;28;20053;-69
2022/06/16 06:26:59;;;;;;;6.43;2.80;;;;;;;;;;4942180;28;20759;-68
2022/06/16 06:29:29;;;;;;;5.88;2.60;;;;;;;;;;4949914;28;20034;-68
2022/06/16 06:31:55;;;;;;;4.47;2.47;;;;;;;;;;4948829;28;20095;-69
2022/06/16 06:34:22;;;;;;;7.85;2.97;;;;;;;;;;4966859;28;20030;-69
2022/06/16 06:36:47;;;;;;;5.97;2.60;;;;;;;;;;4969350;28;20046;-69
2022/06/16 06:39:13;;;;;;;6.25;2.67;;;;;;;;;;4959842;28;20950;-68
2022/06/16 06:41:39;;;;;;;6.68;2.53;;;;;;;;;;4968902;28;20583;-68
2022/06/16 06:44:04;;;;;;;5.22;2.60;;;;;;;;;;4969560;28;20914;-68
2022/06/16 06:46:29;;;;;;;4.25;2.28;;;;;;;;;;4955462;28;20045;-68
2022/06/16 06:48:54;;;;;;;8.18;2.70;;;;;;;;;;4959328;28;20041;-68
2022/06/16 06:51:22;;;;;;;6.15;3.22;;;;;;;;;;4949732;28;20037;-68
2022/06/16 06:53:52;;;;;;;4.82;2.70;;;;;;;;;;4967195;28;20596;-68
2022/06/16 06:56:19;;;;;;;5.50;3.10;;;;;;;;;;4970386;28;20046;-65
2022/06/16 06:58:44;;;;;;;7.47;3.67;;;;;;;;;;4984702;28;20089;-65
2022/06/16 07:01:10;;;;;;;7.05;4.13;;;;;;;;;;4971422;28;20034;-66
2022/06/16 07:03:35;;;;;;;8.35;4.07;;;;;;;;;;4975695;28;20057;-66
2022/06/16 07:06:01;;;;;;;6.95;3.92;;;;;;;;;;4969077;28;20041;-67
2022/06/16 07:08:27;;;;;;;5.07;3.58;;;;;;;;;;4969933;28;20029;-66
2022/06/16 07:10:52;;;;;;;4.95;3.50;;;;;;;;;;4970060;28;20038;-66
2022/06/16 07:13:18;;;;;;;7.88;3.67;;;;;;;;;;4979315;28;20038;-67
2022/06/16 07:15:44;;;;;;;6.18;3.15;;;;;;;;;;4969929;28;20505;-66
2022/06/16 07:18:12;;;;;;;6.60;3.45;;;;;;;;;;4970421;28;20580;-66
2022/06/16 07:20:37;;;;;;;5.00;3.85;;;;;;;;;;4970192;28;20045;-66
2022/06/16 07:23:03;;;;;;;7.15;3.50;;;;;;;;;;4972716;28;20120;-65
2022/06/16 07:25:28;;;;;;;7.05;3.53;;;;;;;;;;4969420;28;20201;-67
2022/06/16 07:27:54;;;;;;;5.95;3.33;;;;;;;;;;4969603;28;20820;-66
2022/06/16 07:30:20;;;;;;;6.30;3.30;;;;;;;;;;4969822;28;20432;-65
2022/06/16 07:32:46;;;;;;;6.90;2.90;;;;;;;;;;4972036;28;20030;-67
2022/06/16 07:35:13;;;;;;;4.95;2.75;;;;;;;;;;4969706;28;20096;-66
2022/06/16 07:37:38;;;;;;;5.00;2.50;;;;;;;;;;4969816;28;20636;-66
2022/06/16 07:40:04;;;;;;;4.15;2.15;;;;;;;;;;4950256;28;20511;-66
2022/06/16 07:42:30;;;;;;;4.55;2.30;;;;;;;;;;4950662;28;20038;-66
2022/06/16 07:44:55;;;;;;;3.90;2.03;;;;;;;;;;4960113;28;20118;-66
2022/06/16 07:47:20;;;;;;;4.55;2.15;;;;;;;;;;4949171;28;20034;-67
2022/06/16 07:49:49;;;;;;;5.68;2.25;;;;;;;;;;4957085;28;20714;-68
2022/06/16 07:52:14;;;;;;;4.80;2.30;;;;;;;;;;4951714;28;20119;-68
2022/06/16 07:54:39;;;;;;;5.18;2.22;;;;;;;;;;4951963;28;20326;-68
2022/06/16 07:57:05;;;;;;;4.18;1.90;;;;;;;;;;4954091;28;20085;-69
2022/06/16 07:59:35;;;;;;;4.50;1.90;;;;;;;;;;4966854;28;20358;-68
2022/06/16 08:02:01;;;;;;;7.07;3.10;;;;;;;;;;4967537;28;20038;-71
2022/06/16 08:04:26;;;;;;;7.38;3.67;;;;;;;;;;4960636;28;20058;-68
2022/06/16 08:06:52;;;;;;;7.85;3.25;;;;;;;;;;4948876;28;20049;-68
2022/06/16 08:09:18;;;;;;;9.95;3.25;;;;;;;;;;4946395;28;20045;-69
2022/06/16 08:14:39;;;;;;;8.63;3.60;;;;;;;;;;4950832;28;20038;-69
2022/06/16 08:17:06;;;;;;;6.55;3.40;;;;;;;;;;4946964;28;20562;-68
2022/06/16 08:19:31;;;;;;;6.85;3.28;;;;;;;;;;4946789;28;20469;-68
2022/06/16 08:21:57;;;;;;;9.73;3.67;;;;;;;;;;4947189;28;20034;-68
2022/06/16 08:24:23;;;;;;;5.45;2.85;;;;;;;;;;4947427;28;20033;-68
2022/06/16 08:26:48;;;;;;;5.75;2.85;;;;;;;;;;4947713;28;20035;-69
2022/06/16 08:29:16;;;;;;;5.10;2.47;;;;;;;;;;4946330;28;20112;-71
2022/06/16 08:31:41;;;;;;;4.75;2.33;;;;;;;;;;4946782;28;20061;-70
2022/06/16 08:34:09;;;;;;;5.43;2.35;;;;;;;;;;4947420;28;20037;-70
2022/06/16 08:36:35;;;;;;;7.13;2.50;;;;;;;;;;4946368;28;20350;-70
2022/06/16 08:39:00;;;;;;;7.40;3.55;;;;;;;;;;4948102;28;20042;-69
2022/06/16 08:41:45;;;;;;;6.97;2.67;;;;;;;;;;4962403;28;22035;-69
2022/06/16 08:44:13;;;;;;;6.00;2.60;;;;;;;;;;4974524;28;20383;-69
2022/06/16 08:46:51;;;;;;;5.28;2.13;;;;;;;;;;4965495;28;20038;-70
2022/06/16 08:49:23;;;;;;;5.68;2.20;;;;;;;;;;4966848;28;20041;-68
2022/06/16 08:51:59;;;;;;;3.97;2.10;;;;;;;;;;4966526;28;20034;-69
2022/06/16 08:54:44;;;;;;;3.97;2.20;;;;;;;;;;4965391;28;20087;-68
2022/06/16 08:57:13;;;;;;;5.38;2.33;;;;;;;;;;4980357;28;20525;-68
2022/06/16 08:59:51;;;;;;;5.68;1.90;;;;;;;;;;4965458;28;20040;-68
2022/06/16 09:02:25;;;;;;;5.78;2.17;;;;;;;;;;4948736;28;20117;-68
2022/06/16 09:04:51;;;;;;;4.40;2.10;;;;;;;;;;4946463;28;20070;-69
2022/06/16 09:07:31;;;;;;;5.80;2.10;;;;;;;;;;4947453;28;20034;-68
2022/06/16 09:10:15;;;;;;;6.43;2.30;;;;;;;;;;4946522;28;20046;-68
2022/06/16 09:12:55;;;;;;;4.82;2.00;;;;;;;;;;4960685;28;20710;-68
2022/06/16 09:15:23;;;;;;;6.67;2.63;;;;;;;;;;4946181;28;21087;-68
2022/06/16 09:18:12;;;;;;;4.38;2.75;;;;;;;;;;4960520;28;20805;-70
2022/06/16 09:20:44;;;;;;;8.18;3.20;;;;;;;;;;4922232;28;20438;-69
2022/06/16 09:23:28;;;;;;;8.48;2.80;;;;;;;;;;4951007;28;20069;-67
2022/06/16 09:26:18;;;;;;;5.70;2.85;;;;;;;;;;4948019;28;20045;-68
2022/06/16 09:28:49;;;;;;;7.10;3.42;;;;;;;;;;4945528;28;20554;-68
2022/06/16 09:31:19;;;;;;;7.93;3.63;;;;;;;;;;4962184;28;20077;-67
2022/06/16 09:33:50;;;;;;;8.50;3.30;;;;;;;;;;4948639;28;20041;-67
2022/06/16 09:36:18;;;;;;;6.75;3.72;;;;;;;;;;4948677;28;20815;-67
2022/06/16 09:39:04;;;;;;;6.90;3.95;;;;;;;;;;4950208;28;20057;-68
2022/06/16 09:44:29;;;;;;;9.55;3.92;;;;;;;;;;4951360;28;20113;-67
2022/06/16 09:46:57;;;;;;;7.80;4.78;;;;;;;;;;4951855;28;20157;-68
2022/06/16 09:49:25;;;;;;;8.43;4.25;;;;;;;;;;4950383;28;20041;-68
2022/06/16 09:52:04;;;;;;;7.60;4.50;;;;;;;;;;4947808;28;20057;-68
2022/06/16 09:54:34;;;;;;;7.82;4.05;;;;;;;;;;4948640;28;20041;-68
2022/06/16 09:57:11;;;;;;;9.38;4.50;;;;;;;;;;4946511;28;20304;-68
2022/06/16 09:59:43;;;;;;;10.32;4.72;;;;;;;;;;4947094;28;20038;-68
2022/06/16 10:02:18;;;;;;;9.32;4.72;;;;;;;;;;4949770;28;20042;-68
2022/06/16 10:04:43;;;;;;;6.57;4.32;;;;;;;;;;4946524;28;20516;-68
2022/06/16 10:07:15;;;;;;;7.20;4.63;;;;;;;;;;4943711;28;20030;-67
2022/06/16 10:09:40;;;;;;;7.60;4.20;;;;;;;;;;4960131;28;20491;-67
2022/06/16 10:12:18;;;;;;;6.43;4.13;;;;;;;;;;4947163;28;20730;-72
2022/06/16 10:14:53;;;;;;;6.68;3.75;;;;;;;;;;4949002;28;20044;-73
2022/06/16 10:17:21;;;;;;;7.25;4.13;;;;;;;;;;4950940;28;20911;-72
2022/06/16 10:19:48;;;;;;;5.85;3.60;;;;;;;;;;4948699;28;20026;-74
2022/06/16 10:22:16;;;;;;;5.13;3.72;;;;;;;;;;4953853;28;20581;-73
2022/06/16 10:24:51;;;;;;;8.15;4.03;;;;;;;;;;4954457;28;20067;-71
2022/06/16 10:27:20;;;;;;;6.40;4.20;;;;;;;;;;4964327;28;20145;-73
2022/06/16 10:29:53;;;;;;;7.20;4.20;;;;;;;;;;4951214;28;20034;-70
2022/06/16 10:32:31;;;;;;;7.65;3.78;;;;;;;;;;4950859;28;20974;-72
2022/06/16 10:34:57;;;;;;;5.47;3.70;;;;;;;;;;4939010;28;20894;-72
2022/06/16 10:37:27;;;;;;;10.18;4.20;;;;;;;;;;4964157;28;25355;-72
2022/06/16 10:39:58;;;;;;;6.88;4.05;;;;;;;;;;4971197;28;20039;-73
2022/06/16 10:42:28;;;;;;;6.65;3.50;;;;;;;;;;4967752;28;20041;-71
2022/06/16 10:44:56;;;;;;;7.38;4.00;;;;;;;;;;4981688;28;20037;-72
2022/06/16 10:47:25;;;;;;;7.10;3.90;;;;;;;;;;4968315;28;20272;-73
2022/06/16 10:49:51;;;;;;;7.38;4.07;;;;;;;;;;4968137;28;20030;-72
2022/06/16 10:52:40;;;;;;;7.45;4.22;;;;;;;;;;4967081;28;20192;-73
2022/06/16 10:55:08;;;;;;;7.03;4.30;;;;;;;;;;4965921;28;20037;-72
2022/06/16 10:57:40;;;;;;;7.05;4.35;;;;;;;;;;4964964;28;20544;-73
2022/06/16 11:00:17;;;;;;;7.85;4.22;;;;;;;;;;4963323;28;21627;-73
2022/06/16 11:02:55;;;;;;;5.63;3.70;;;;;;;;;;4949208;28;20041;-74
2022/06/16 11:05:20;;;;;;;8.95;3.70;;;;;;;;;;4966305;28;20152;-73
2022/06/16 11:07:45;;;;;;;6.78;3.65;;;;;;;;;;4949199;28;20688;-73
2022/06/16 11:10:15;;;;;;;6.47;3.50;;;;;;;;;;4951030;28;20096;-73
2022/06/16 11:12:46;;;;;;;6.22;3.92;;;;;;;;;;4951143;28;20594;-74
2022/06/16 11:15:11;;;;;;;5.63;3.53;;;;;;;;;;4952026;28;20812;-74
2022/06/16 11:17:40;;;;;;;6.32;3.72;;;;;;;;;;4948477;28;20034;-73
2022/06/16 11:20:26;;;;;;;6.43;4.00;;;;;;;;;;4947496;28;20039;-74
2022/06/16 11:22:54;;;;;;;6.88;3.80;;;;;;;;;;4946805;28;20039;-75
2022/06/16 11:25:21;;;;;;;5.82;3.70;;;;;;;;;;4946164;28;20677;-73
2022/06/16 11:28:25;;;;;;;6.28;3.70;;;;;;;;;;4954704;28;20272;-74
2022/06/16 11:30:50;;;;;;;5.68;3.67;;;;;;;;;;4961461;28;20045;-75
2022/06/16 11:36:37;;;;;;;7.78;3.92;;;;;;;;;;4949560;28;21169;-73
2022/06/16 11:39:14;;;;;;;7.25;4.18;;;;;;;;;;4948893;28;21900;-75
2022/06/16 11:41:41;;;;;;;6.97;3.90;;;;;;;;;;4951367;28;20068;-72
2022/06/16 11:44:09;;;;;;;7.30;3.60;;;;;;;;;;4950007;28;20628;-72
2022/06/16 11:46:49;;;;;;;6.82;4.10;;;;;;;;;;4949846;28;20069;-75
2022/06/16 11:49:49;;;;;;;5.95;4.00;;;;;;;;;;4949439;28;20031;-76
2022/06/16 11:52:25;;;;;;;6.38;3.80;;;;;;;;;;4934310;28;20106;-73
2022/06/16 11:54:55;;;;;;;7.18;4.00;;;;;;;;;;4946962;28;20041;-72
2022/06/16 11:57:42;;;;;;;7.63;3.47;;;;;;;;;;4963360;28;21013;-72
2022/06/16 12:00:15;;;;;;;6.03;4.03;;;;;;;;;;4958898;28;20036;-75
2022/06/16 12:02:56;;;;;;;10.18;4.05;;;;;;;;;;4948236;28;20030;-73
2022/06/16 12:05:33;;;;;;;5.43;3.60;;;;;;;;;;4949891;28;21408;-72
2022/06/16 12:08:00;;;;;;;7.15;3.90;;;;;;;;;;4949957;28;20573;-73
2022/06/16 12:10:32;;;;;;;6.00;4.00;;;;;;;;;;4947489;28;20060;-72
2022/06/16 12:13:09;;;;;;;7.43;3.95;;;;;;;;;;4963531;28;20791;-73
2022/06/16 12:15:41;;;;;;;6.63;3.65;;;;;;;;;;4948371;28;20069;-73
2022/06/16 12:18:39;;;;;;;8.23;3.70;;;;;;;;;;4950497;28;20765;-74
2022/06/16 12:21:24;;;;;;;6.32;3.40;;;;;;;;;;4957694;28;20836;-71
2022/06/16 12:23:49;;;;;;;8.43;3.80;;;;;;;;;;4971417;28;20042;-73
2022/06/16 12:26:27;;;;;;;6.53;4.10;;;;;;;;;;4963875;28;20056;-73
2022/06/16 12:29:02;;;;;;;5.57;3.40;;;;;;;;;;4968368;28;20317;-74
2022/06/16 12:31:39;;;;;;;5.05;3.72;;;;;;;;;;4952664;28;20096;-72
2022/06/16 12:34:05;;;;;;;7.13;3.80;;;;;;;;;;4950005;28;20503;-73
2022/06/16 12:36:44;;;;;;;8.38;4.10;;;;;;;;;;4950730;28;20107;-74
2022/06/16 12:39:11;;;;;;;5.13;3.60;;;;;;;;;;4970842;28;20107;-77
2022/06/16 12:41:38;;;;;;;10.07;3.13;;;;;;;;;;4971609;28;20127;-75
2022/06/16 12:44:10;;;;;;;3.90;2.50;;;;;;;;;;4973117;28;21137;-74
2022/06/16 12:46:38;;;;;;;6.05;2.97;;;;;;;;;;4975005;28;20150;-75
2022/06/16 12:49:09;;;;;;;5.78;2.75;;;;;;;;;;4971328;28;20030;-75
2022/06/16 12:51:37;;;;;;;5.43;2.90;;;;;;;;;;4969917;28;20034;-71
2022/06/16 12:54:09;;;;;;;7.80;2.83;;;;;;;;;;4953577;28;20896;-72
2022/06/16 12:56:40;;;;;;;5.10;2.95;;;;;;;;;;4951086;28;20046;-72
2022/06/16 12:59:21;;;;;;;4.35;2.65;;;;;;;;;;4954723;28;20765;-71
2022/06/16 13:01:51;;;;;;;5.72;2.65;;;;;;;;;;4951674;28;20045;-73
2022/06/16 13:04:22;;;;;;;5.00;2.72;;;;;;;;;;4956976;28;20034;-71
2022/06/16 13:06:47;;;;;;;7.20;2.95;;;;;;;;;;4955397;28;20149;-73
2022/06/16 13:09:13;;;;;;;5.78;2.60;;;;;;;;;;4961111;28;20054;-73
2022/06/16 13:11:48;;;;;;;5.55;3.03;;;;;;;;;;4953076;28;20034;-75
2022/06/16 13:14:26;;;;;;;4.30;2.70;;;;;;;;;;4973684;28;20045;-77
2022/06/16 13:16:52;;;;;;;4.05;2.58;;;;;;;;;;4973691;28;20048;-79
2022/06/16 13:19:22;;;;;;;6.55;2.53;;;;;;;;;;4967618;28;20034;-73
2022/06/16 13:21:52;;;;;;;4.78;2.30;;;;;;;;;;4954428;28;20031;-78
2022/06/16 13:24:23;;;;;;;7.55;2.70;;;;;;;;;;4954258;28;20041;-78
2022/06/16 13:27:14;;;;;;;4.18;2.55;;;;;;;;;;4955039;28;20042;-76
2022/06/16 13:29:40;;;;;;;;;;;;;;;;;;4954477;28;20038;-77
2022/06/16 13:32:19;;;;;;;5.07;2.53;;;;;;;;;;4956512;28;19960;-76
2022/06/16 13:34:55;;;;;;;6.35;2.83;;;;;;;;;;4952666;28;20635;-75
2022/06/16 13:37:38;;;;;;;6.03;2.90;;;;;;;;;;4952041;28;20046;-75
2022/06/16 13:40:06;;;;;;;6.32;2.90;;;;;;;;;;4950689;28;20034;-73
2022/06/16 13:42:51;;;;;;;5.18;2.40;;;;;;;;;;4952525;28;20041;-75
2022/06/16 13:45:23;;;;;;;6.93;2.60;;;;;;;;;;4972965;28;20045;-76
2022/06/16 13:48:06;;;;;;;5.00;2.78;;;;;;;;;;4969777;28;20034;-76
2022/06/16 13:50:49;;;;;;;6.47;2.92;;;;;;;;;;4969285;28;20538;-77
2022/06/16 13:53:25;;;;;;;5.30;2.40;;;;;;;;;;4969285;28;20184;-75
2022/06/16 13:55:55;;;;;;;5.25;2.55;;;;;;;;;;4949012;28;20827;-75
2022/06/16 13:58:33;;;;;;;4.07;2.30;;;;;;;;;;4947817;28;20533;-76
2022/06/16 14:01:05;;;;;;;4.30;2.47;;;;;;;;;;4980763;28;20022;-75
2022/06/16 14:03:31;;;;;;;4.50;2.33;;;;;;;;;;4969289;28;20396;-76
2022/06/16 14:06:03;;;;;;;5.90;2.85;;;;;;;;;;4972617;28;20635;-75
2022/06/16 14:08:30;;;;;;;6.95;2.97;;;;;;;;;;4969257;28;20528;-77
2022/06/16 14:11:14;;;;;;;5.25;2.53;;;;;;;;;;4981247;28;20038;-77
2022/06/16 14:13:43;;;;;;;4.32;2.17;;;;;;;;;;4967197;28;20041;-73
2022/06/16 14:16:09;;;;;;;5.18;2.22;;;;;;;;;;4970122;28;20057;-74
2022/06/16 14:18:55;;;;;;;4.70;2.40;;;;;;;;;;4972259;28;20042;-75
2022/06/16 14:21:24;;;;;;;6.63;2.60;;;;;;;;;;4970741;28;20604;-73
2022/06/16 14:23:49;;;;;;;6.47;2.50;;;;;;;;;;4974076;28;20044;-73
2022/06/16 14:26:19;;;;;;;6.22;2.50;;;;;;;;;;4966689;28;20042;-73
2022/06/16 14:28:46;;;;;;;4.38;2.10;;;;;;;;;;4984528;28;20906;-74
2022/06/16 14:31:14;;;;;;;5.10;2.38;;;;;;;;;;4970819;28;21250;-73
2022/06/16 14:33:45;;;;;;;4.88;2.53;;;;;;;;;;4970421;28;20038;-73
2022/06/16 14:36:13;;;;;;;;;;;;;;;;;;4970264;28;20057;-72
2022/06/16 14:38:45;;;;;;;6.28;2.63;;;;;;;;;;4971554;28;19928;-73
2022/06/16 14:41:14;;;;;;;4.97;2.60;;;;;;;;;;4970519;28;20058;-72
2022/06/16 14:43:45;;;;;;;3.85;2.20;;;;;;;;;;4971517;28;20042;-70
2022/06/16 14:46:13;;;;;;;5.03;2.50;;;;;;;;;;4984736;28;20767;-75
2022/06/16 14:48:40;;;;;;;4.97;2.00;;;;;;;;;;4967628;28;20030;-75
2022/06/16 14:51:08;;;;;;;6.00;2.53;;;;;;;;;;4975452;28;20038;-75
2022/06/16 14:53:56;;;;;;;5.85;2.65;;;;;;;;;;4970308;28;20156;-73
2022/06/16 14:56:24;;;;;;;6.57;2.30;;;;;;;;;;4970499;28;20843;-73
2022/06/16 14:58:53;;;;;;;6.18;2.20;;;;;;;;;;4983812;28;20037;-69
2022/06/16 15:01:24;;;;;;;3.55;2.20;;;;;;;;;;4969805;28;20034;-71
2022/06/16 15:03:53;;;;;;;5.85;2.60;;;;;;;;;;4969134;28;20045;-76
2022/06/16 15:06:21;;;;;;;4.13;2.08;;;;;;;;;;4965727;28;20034;-73
2022/06/16 15:08:48;;;;;;;5.13;2.28;;;;;;;;;;4964018;28;20092;-74
2022/06/16 15:11:17;;;;;;;5.68;2.60;;;;;;;;;;4961494;28;20045;-72
2022/06/16 15:13:45;;;;;;;4.63;2.80;;;;;;;;;;4953176;28;21883;-73
2022/06/16 15:18:10;;;;;;;4.28;2.75;;;;;;;;;;4954668;28;20123;-72
2022/06/16 15:18:57;;;;;;;4.30;2.80;;;;;;;;;;4954631;28;20056;-74
2022/06/16 15:21:25;;;;;;;5.78;2.60;;;;;;;;;;4953516;28;20045;-75